Alpine, CA

6:51 AM PDT on September 30, 2014 (GMT -0700)
Alpine: Rancho Palo Verde | Change Station
CLOSE
Current Station
Personal Weather Station
Location: Alpine, CA
Elevation: 2015 ft
Nearby Weather Stations

Elev 2015 ft 32.81 °N, 116.76 °W | Updated 1 second ago

Clear
Clear
61.2 °F
Feels Like 61.2 °F
N
0.0
Wind Variable Wind from East
Gusts 0.0 mph

Today
High -- | Low -- °F
--% Chance of Precip.
Yesterday
High -- | Low -- °F
Precip. -- in
6:40 AM 6:32 PM
Waxing Crescent, 37% visible
Pressure 29.88 in
Visibility 10.0 miles
Clouds Clear
Dew Point 42 °F
Humidity 50%
Rainfall 0.00 in
Snow Depth 2 in , 0 in , 0 in
UV 0 out of 12
Pollen 5.10 out of 12
Ozone Good
PM2.5 Good
Flu Activity Not available.
METAR KSEE 301335Z AUTO 00000KT 10SM CLR 14/13 A2988 RMK AO2

More Conditions Fewer Conditions

Pressure 29.88 in
Visibility 10.0 miles
Clouds Clear
Dew Point 42 °F
Humidity 50%
Rainfall 0.00 in
Snow Depth 2 in , 0 in , 0 in
UV 0 out of 12
Pollen 5.10 out of 12
Ozone Good
PM2.5 Good
Flu Activity Not available.
METAR KSEE 301335Z AUTO 00000KT 10SM CLR 14/13 A2988 RMK AO2

More Conditions Fewer Conditions

10-Day Weather Forecast

Almanac

Astronomy

Sep. 30, 2014 Rise Set
Actual Time 6:40 AM PDT 6:32 PM PDT
Civil Twilight 6:15 AM PDT 6:57 PM PDT
Nautical Twilight 5:47 AM PDT 7:25 PM PDT
Astronomical Twilight 5:18 AM PDT 7:54 PM PDT
Moon 12:38 PM PDT 11:21 PM PDT
Length of Visible Light 12h 41m
Length of Day
11h 52m
Tomorrow will be 1m 59s shorter.
Waxing Crescent, 37% of the Moon is Illuminated
Today
Waxing Crescent
Oct 1
First Quarter
Oct 8
Full
Oct 15
Last Quarter
Oct 23
New

Today's Extremes

State Highs State Lows

Community

WunderPhotos

Upload Photos

1,757,636 photos uploaded!

Nearby

Air Quality

  Air Quality AQ Index Pollutant
Yesterday Good
OZONE
Yesterday Good
PM2.5
Current Good
OZONE
Current Good
PM2.5
Tuesday Good
PM2.5
Tuesday Good
OZONE

Snow Depth

Station Depth Elevation
Heavenly Valley 2 in 8850 ft
Squaw Valley 0 in 8200 ft
Poison Flat 0 in 7900 ft
Burnside Lake 0 in 8139 ft
Summit Meadow 1 in 9122 ft

Earthquake Activity

City Distance Mag. Time & Date
No recent earthquake activity has been reported nearby.
Minimum magnitude displayed is 2.5.

Coastal Water Temperatures

Place Temperature
La Jolla, CA 66.0 °F
San Diego, CA 73.0 °F

Nearby Weather Stations